Terminal Aerodrome Forecast
Issued by NWS North Platte, NE

Home | Current Version | Previous Version | Graphics & Text | Print | Product List | Glossary Off
Versions: 1 2 3 4 5 6 7 8 9 10 11 12

186
FTUS43 KLBF 041136
TAFVTN
TAF
KVTN 041136Z 0412/0512 25009KT P6SM SCT200
     FM042300 21007KT P6SM SCT250
     FM050700 22010KT P6SM BKN090=

USA.gov is the U.S. government's official web portal to all federal, state and local government web resources and services.